sensor_id;sensor_type;location;lat;lon;timestamp;P1;durP1;ratioP1;P2;durP2;ratioP2
71387;SDS011;59201;59.902;10.520;2022-08-03T00:01:28;8.85;;;2.33;;
71387;SDS011;59201;59.902;10.520;2022-08-03T00:03:54;6.77;;;2.30;;
71387;SDS011;59201;59.902;10.520;2022-08-03T00:06:20;6.43;;;2.30;;
71387;SDS011;59201;59.902;10.520;2022-08-03T00:08:46;7.97;;;2.13;;
71387;SDS011;59201;59.902;10.520;2022-08-03T00:11:12;8.02;;;1.92;;
71387;SDS011;59201;59.902;10.520;2022-08-03T00:13:38;7.20;;;1.92;;
71387;SDS011;59201;59.902;10.520;2022-08-03T00:16:04;5.80;;;2.10;;
71387;SDS011;59201;59.902;10.520;2022-08-03T00:18:30;5.68;;;2.15;;
71387;SDS011;59201;59.902;10.520;2022-08-03T00:20:57;7.65;;;2.97;;
71387;SDS011;59201;59.902;10.520;2022-08-03T00:23:23;7.63;;;2.58;;
71387;SDS011;59201;59.902;10.520;2022-08-03T00:25:49;5.97;;;2.80;;
71387;SDS011;59201;59.902;10.520;2022-08-03T00:28:15;7.13;;;2.53;;
71387;SDS011;59201;59.902;10.520;2022-08-03T00:30:41;7.05;;;2.28;;
71387;SDS011;59201;59.902;10.520;2022-08-03T00:33:07;6.82;;;2.40;;
71387;SDS011;59201;59.902;10.520;2022-08-03T00:35:34;6.60;;;2.30;;
71387;SDS011;59201;59.902;10.520;2022-08-03T00:38:00;5.88;;;2.10;;
71387;SDS011;59201;59.902;10.520;2022-08-03T00:40:27;5.83;;;2.53;;
71387;SDS011;59201;59.902;10.520;2022-08-03T00:42:58;6.22;;;2.22;;
71387;SDS011;59201;59.902;10.520;2022-08-03T00:45:35;7.13;;;2.30;;
71387;SDS011;59201;59.902;10.520;2022-08-03T00:48:02;7.63;;;2.67;;
71387;SDS011;59201;59.902;10.520;2022-08-03T00:50:29;7.03;;;2.33;;
71387;SDS011;59201;59.902;10.520;2022-08-03T00:52:56;6.63;;;2.30;;
71387;SDS011;59201;59.902;10.520;2022-08-03T00:55:23;7.88;;;2.30;;
71387;SDS011;59201;59.902;10.520;2022-08-03T00:57:50;6.53;;;2.20;;
71387;SDS011;59201;59.902;10.520;2022-08-03T01:00:17;7.05;;;2.38;;
71387;SDS011;59201;59.902;10.520;2022-08-03T01:02:44;6.75;;;2.10;;
71387;SDS011;59201;59.902;10.520;2022-08-03T01:05:10;5.77;;;1.93;;
71387;SDS011;59201;59.902;10.520;2022-08-03T01:07:41;6.85;;;2.20;;
71387;SDS011;59201;59.902;10.520;2022-08-03T01:10:12;7.45;;;2.25;;
71387;SDS011;59201;59.902;10.520;2022-08-03T01:12:47;7.13;;;2.30;;
71387;SDS011;59201;59.902;10.520;2022-08-03T01:15:23;5.50;;;2.00;;
71387;SDS011;59201;59.902;10.520;2022-08-03T01:17:53;6.77;;;2.03;;
71387;SDS011;59201;59.902;10.520;2022-08-03T01:20:21;6.05;;;2.17;;
71387;SDS011;59201;59.902;10.520;2022-08-03T01:25:58;6.43;;;2.13;;
71387;SDS011;59201;59.902;10.520;2022-08-03T01:31:00;7.60;;;2.33;;
71387;SDS011;59201;59.902;10.520;2022-08-03T01:33:34;7.47;;;2.92;;
71387;SDS011;59201;59.902;10.520;2022-08-03T01:36:02;6.63;;;2.40;;
71387;SDS011;59201;59.902;10.520;2022-08-03T01:38:37;6.75;;;2.15;;
71387;SDS011;59201;59.902;10.520;2022-08-03T01:41:07;7.97;;;2.83;;
71387;SDS011;59201;59.902;10.520;2022-08-03T01:43:35;7.00;;;2.10;;
71387;SDS011;59201;59.902;10.520;2022-08-03T01:46:03;7.32;;;2.60;;
71387;SDS011;59201;59.902;10.520;2022-08-03T01:48:30;8.25;;;2.90;;
71387;SDS011;59201;59.902;10.520;2022-08-03T01:50:56;8.65;;;2.78;;
71387;SDS011;59201;59.902;10.520;2022-08-03T01:53:24;8.25;;;2.50;;
71387;SDS011;59201;59.902;10.520;2022-08-03T01:55:51;11.00;;;3.87;;
71387;SDS011;59201;59.902;10.520;2022-08-03T01:58:18;7.93;;;3.30;;
71387;SDS011;59201;59.902;10.520;2022-08-03T02:00:45;10.23;;;2.85;;
71387;SDS011;59201;59.902;10.520;2022-08-03T02:03:12;8.68;;;3.00;;
71387;SDS011;59201;59.902;10.520;2022-08-03T02:05:40;10.55;;;3.00;;
71387;SDS011;59201;59.902;10.520;2022-08-03T02:08:08;11.60;;;3.20;;
71387;SDS011;59201;59.902;10.520;2022-08-03T02:10:35;10.00;;;3.30;;
71387;SDS011;59201;59.902;10.520;2022-08-03T02:13:03;9.77;;;3.05;;
71387;SDS011;59201;59.902;10.520;2022-08-03T02:15:29;9.70;;;3.15;;
71387;SDS011;59201;59.902;10.520;2022-08-03T02:17:57;8.55;;;2.80;;
71387;SDS011;59201;59.902;10.520;2022-08-03T02:20:24;9.13;;;3.07;;
71387;SDS011;59201;59.902;10.520;2022-08-03T02:22:52;9.55;;;3.03;;
71387;SDS011;59201;59.902;10.520;2022-08-03T02:25:18;10.05;;;3.17;;
71387;SDS011;59201;59.902;10.520;2022-08-03T02:27:54;9.05;;;3.05;;
71387;SDS011;59201;59.902;10.520;2022-08-03T02:30:20;10.68;;;3.85;;
71387;SDS011;59201;59.902;10.520;2022-08-03T02:32:55;9.20;;;3.30;;
71387;SDS011;59201;59.902;10.520;2022-08-03T02:35:23;9.85;;;3.25;;
71387;SDS011;59201;59.902;10.520;2022-08-03T02:37:51;13.70;;;3.50;;
71387;SDS011;59201;59.902;10.520;2022-08-03T02:40:18;7.43;;;2.85;;
71387;SDS011;59201;59.902;10.520;2022-08-03T02:42:45;8.52;;;3.28;;
71387;SDS011;59201;59.902;10.520;2022-08-03T02:45:13;8.23;;;3.20;;
71387;SDS011;59201;59.902;10.520;2022-08-03T02:47:41;11.32;;;3.40;;
71387;SDS011;59201;59.902;10.520;2022-08-03T02:50:09;9.85;;;3.80;;
71387;SDS011;59201;59.902;10.520;2022-08-03T02:52:36;9.52;;;3.42;;
71387;SDS011;59201;59.902;10.520;2022-08-03T02:55:03;10.48;;;3.33;;
71387;SDS011;59201;59.902;10.520;2022-08-03T02:57:30;9.57;;;3.63;;
71387;SDS011;59201;59.902;10.520;2022-08-03T02:59:58;8.98;;;3.47;;
71387;SDS011;59201;59.902;10.520;2022-08-03T03:02:24;8.23;;;2.80;;
71387;SDS011;59201;59.902;10.520;2022-08-03T03:04:52;10.55;;;3.53;;
71387;SDS011;59201;59.902;10.520;2022-08-03T03:07:18;11.10;;;3.30;;
71387;SDS011;59201;59.902;10.520;2022-08-03T03:09:44;10.67;;;3.37;;
71387;SDS011;59201;59.902;10.520;2022-08-03T03:12:11;11.45;;;4.28;;
71387;SDS011;59201;59.902;10.520;2022-08-03T03:14:38;12.07;;;4.05;;
71387;SDS011;59201;59.902;10.520;2022-08-03T03:17:05;9.93;;;3.60;;
71387;SDS011;59201;59.902;10.520;2022-08-03T03:19:31;9.55;;;3.30;;
71387;SDS011;59201;59.902;10.520;2022-08-03T03:22:01;11.17;;;3.60;;
71387;SDS011;59201;59.902;10.520;2022-08-03T03:24:28;10.93;;;3.75;;
71387;SDS011;59201;59.902;10.520;2022-08-03T03:26:54;9.68;;;3.55;;
71387;SDS011;59201;59.902;10.520;2022-08-03T03:29:20;11.80;;;3.90;;
71387;SDS011;59201;59.902;10.520;2022-08-03T03:31:47;11.60;;;3.78;;
71387;SDS011;59201;59.902;10.520;2022-08-03T03:34:13;10.23;;;2.93;;
71387;SDS011;59201;59.902;10.520;2022-08-03T03:36:39;10.45;;;3.65;;
71387;SDS011;59201;59.902;10.520;2022-08-03T03:39:06;9.98;;;3.50;;
71387;SDS011;59201;59.902;10.520;2022-08-03T03:41:32;13.25;;;3.60;;
71387;SDS011;59201;59.902;10.520;2022-08-03T03:43:59;11.77;;;3.38;;
71387;SDS011;59201;59.902;10.520;2022-08-03T03:46:25;10.90;;;3.23;;
71387;SDS011;59201;59.902;10.520;2022-08-03T03:48:51;12.40;;;3.72;;
71387;SDS011;59201;59.902;10.520;2022-08-03T03:51:17;10.65;;;3.67;;
71387;SDS011;59201;59.902;10.520;2022-08-03T03:54:04;14.13;;;4.40;;
71387;SDS011;59201;59.902;10.520;2022-08-03T03:56:31;11.88;;;3.60;;
71387;SDS011;59201;59.902;10.520;2022-08-03T03:58:57;12.30;;;3.77;;
71387;SDS011;59201;59.902;10.520;2022-08-03T04:01:23;9.90;;;3.70;;
71387;SDS011;59201;59.902;10.520;2022-08-03T04:03:49;12.18;;;3.80;;
71387;SDS011;59201;59.902;10.520;2022-08-03T04:06:15;10.63;;;3.58;;
71387;SDS011;59201;59.902;10.520;2022-08-03T04:09:00;10.77;;;4.18;;
71387;SDS011;59201;59.902;10.520;2022-08-03T04:11:53;10.53;;;4.03;;
71387;SDS011;59201;59.902;10.520;2022-08-03T04:14:21;12.02;;;4.38;;
71387;SDS011;59201;59.902;10.520;2022-08-03T04:16:52;12.43;;;4.13;;
71387;SDS011;59201;59.902;10.520;2022-08-03T04:19:29;11.20;;;3.70;;
71387;SDS011;59201;59.902;10.520;2022-08-03T04:21:57;12.13;;;3.80;;
71387;SDS011;59201;59.902;10.520;2022-08-03T04:24:24;11.00;;;3.40;;
71387;SDS011;59201;59.902;10.520;2022-08-03T04:26:52;10.55;;;3.58;;
71387;SDS011;59201;59.902;10.520;2022-08-03T04:29:18;12.88;;;3.97;;
71387;SDS011;59201;59.902;10.520;2022-08-03T04:31:45;11.50;;;3.75;;
71387;SDS011;59201;59.902;10.520;2022-08-03T04:34:11;13.82;;;3.90;;
71387;SDS011;59201;59.902;10.520;2022-08-03T04:36:43;13.87;;;3.53;;
71387;SDS011;59201;59.902;10.520;2022-08-03T04:39:12;13.32;;;3.60;;
71387;SDS011;59201;59.902;10.520;2022-08-03T04:41:39;8.85;;;3.25;;
71387;SDS011;59201;59.902;10.520;2022-08-03T04:44:05;12.20;;;3.38;;
71387;SDS011;59201;59.902;10.520;2022-08-03T04:46:33;9.68;;;3.20;;
71387;SDS011;59201;59.902;10.520;2022-08-03T04:49:00;10.50;;;3.47;;
71387;SDS011;59201;59.902;10.520;2022-08-03T04:51:26;10.32;;;3.28;;
71387;SDS011;59201;59.902;10.520;2022-08-03T04:53:53;8.50;;;3.15;;
71387;SDS011;59201;59.902;10.520;2022-08-03T04:56:19;7.82;;;3.15;;
71387;SDS011;59201;59.902;10.520;2022-08-03T04:58:45;9.30;;;2.75;;
71387;SDS011;59201;59.902;10.520;2022-08-03T05:01:11;9.27;;;3.00;;
71387;SDS011;59201;59.902;10.520;2022-08-03T05:03:37;11.55;;;3.20;;
71387;SDS011;59201;59.902;10.520;2022-08-03T05:06:03;8.48;;;3.10;;
71387;SDS011;59201;59.902;10.520;2022-08-03T05:08:29;7.65;;;2.97;;
71387;SDS011;59201;59.902;10.520;2022-08-03T05:10:55;10.73;;;3.10;;
71387;SDS011;59201;59.902;10.520;2022-08-03T05:13:22;8.53;;;2.40;;
71387;SDS011;59201;59.902;10.520;2022-08-03T05:15:48;9.60;;;3.35;;
71387;SDS011;59201;59.902;10.520;2022-08-03T05:18:15;9.02;;;3.05;;
71387;SDS011;59201;59.902;10.520;2022-08-03T05:20:42;10.48;;;3.08;;
71387;SDS011;59201;59.902;10.520;2022-08-03T05:23:08;8.82;;;2.80;;
71387;SDS011;59201;59.902;10.520;2022-08-03T05:25:34;9.50;;;2.90;;
71387;SDS011;59201;59.902;10.520;2022-08-03T05:28:00;9.65;;;3.00;;
71387;SDS011;59201;59.902;10.520;2022-08-03T05:30:26;7.50;;;3.03;;
71387;SDS011;59201;59.902;10.520;2022-08-03T05:32:52;9.73;;;3.00;;
71387;SDS011;59201;59.902;10.520;2022-08-03T05:35:18;8.13;;;2.97;;
71387;SDS011;59201;59.902;10.520;2022-08-03T05:37:45;8.50;;;3.27;;
71387;SDS011;59201;59.902;10.520;2022-08-03T05:40:11;9.27;;;3.08;;
71387;SDS011;59201;59.902;10.520;2022-08-03T05:42:37;11.05;;;3.15;;
71387;SDS011;59201;59.902;10.520;2022-08-03T05:45:03;9.15;;;2.85;;
71387;SDS011;59201;59.902;10.520;2022-08-03T05:47:41;8.02;;;3.00;;
71387;SDS011;59201;59.902;10.520;2022-08-03T05:50:08;11.90;;;2.83;;
71387;SDS011;59201;59.902;10.520;2022-08-03T05:52:34;8.63;;;2.75;;
71387;SDS011;59201;59.902;10.520;2022-08-03T05:55:00;11.48;;;3.30;;
71387;SDS011;59201;59.902;10.520;2022-08-03T05:57:26;10.07;;;3.20;;
71387;SDS011;59201;59.902;10.520;2022-08-03T05:59:52;10.95;;;3.30;;
71387;SDS011;59201;59.902;10.520;2022-08-03T06:02:18;9.33;;;3.37;;
71387;SDS011;59201;59.902;10.520;2022-08-03T06:04:44;11.70;;;3.03;;
71387;SDS011;59201;59.902;10.520;2022-08-03T06:07:11;8.77;;;2.75;;
71387;SDS011;59201;59.902;10.520;2022-08-03T06:09:37;10.75;;;3.20;;
71387;SDS011;59201;59.902;10.520;2022-08-03T06:12:03;9.27;;;3.28;;
71387;SDS011;59201;59.902;10.520;2022-08-03T06:14:29;9.83;;;2.83;;
71387;SDS011;59201;59.902;10.520;2022-08-03T06:16:55;9.25;;;2.90;;
71387;SDS011;59201;59.902;10.520;2022-08-03T06:19:21;9.55;;;3.28;;
71387;SDS011;59201;59.902;10.520;2022-08-03T06:21:48;8.43;;;3.13;;
71387;SDS011;59201;59.902;10.520;2022-08-03T06:24:14;11.32;;;3.20;;
71387;SDS011;59201;59.902;10.520;2022-08-03T06:26:40;8.30;;;3.00;;
71387;SDS011;59201;59.902;10.520;2022-08-03T06:29:06;10.02;;;3.80;;
71387;SDS011;59201;59.902;10.520;2022-08-03T06:31:32;9.70;;;3.30;;
71387;SDS011;59201;59.902;10.520;2022-08-03T06:33:59;8.73;;;3.53;;
71387;SDS011;59201;59.902;10.520;2022-08-03T06:36:25;8.45;;;3.10;;
71387;SDS011;59201;59.902;10.520;2022-08-03T06:38:55;12.63;;;3.70;;
71387;SDS011;59201;59.902;10.520;2022-08-03T06:41:22;10.27;;;3.25;;
71387;SDS011;59201;59.902;10.520;2022-08-03T06:43:48;9.75;;;3.60;;
71387;SDS011;59201;59.902;10.520;2022-08-03T06:46:14;12.73;;;3.50;;
71387;SDS011;59201;59.902;10.520;2022-08-03T06:48:41;11.02;;;3.33;;
71387;SDS011;59201;59.902;10.520;2022-08-03T06:51:07;8.57;;;3.17;;
71387;SDS011;59201;59.902;10.520;2022-08-03T06:53:34;10.70;;;3.25;;
71387;SDS011;59201;59.902;10.520;2022-08-03T06:56:00;9.13;;;2.95;;
71387;SDS011;59201;59.902;10.520;2022-08-03T06:58:26;7.78;;;2.55;;
71387;SDS011;59201;59.902;10.520;2022-08-03T07:00:52;9.50;;;2.63;;
71387;SDS011;59201;59.902;10.520;2022-08-03T07:03:18;7.87;;;2.83;;
71387;SDS011;59201;59.902;10.520;2022-08-03T07:05:44;9.73;;;3.05;;
71387;SDS011;59201;59.902;10.520;2022-08-03T07:08:11;8.15;;;2.38;;
71387;SDS011;59201;59.902;10.520;2022-08-03T07:10:37;8.55;;;3.20;;
71387;SDS011;59201;59.902;10.520;2022-08-03T07:13:03;10.68;;;2.90;;
71387;SDS011;59201;59.902;10.520;2022-08-03T07:15:30;6.57;;;2.43;;
71387;SDS011;59201;59.902;10.520;2022-08-03T07:17:56;9.27;;;2.80;;
71387;SDS011;59201;59.902;10.520;2022-08-03T07:20:22;9.40;;;3.08;;
71387;SDS011;59201;59.902;10.520;2022-08-03T07:22:48;9.40;;;3.20;;
71387;SDS011;59201;59.902;10.520;2022-08-03T07:25:14;9.30;;;2.60;;
71387;SDS011;59201;59.902;10.520;2022-08-03T07:27:43;7.90;;;2.60;;
71387;SDS011;59201;59.902;10.520;2022-08-03T07:30:10;8.07;;;2.85;;
71387;SDS011;59201;59.902;10.520;2022-08-03T07:32:36;7.88;;;2.55;;
71387;SDS011;59201;59.902;10.520;2022-08-03T07:35:03;8.55;;;2.55;;
71387;SDS011;59201;59.902;10.520;2022-08-03T07:37:30;11.05;;;2.90;;
71387;SDS011;59201;59.902;10.520;2022-08-03T07:39:57;9.10;;;3.07;;
71387;SDS011;59201;59.902;10.520;2022-08-03T07:42:23;10.63;;;2.88;;
71387;SDS011;59201;59.902;10.520;2022-08-03T07:44:49;6.75;;;2.70;;
71387;SDS011;59201;59.902;10.520;2022-08-03T07:47:33;12.55;;;3.00;;
71387;SDS011;59201;59.902;10.520;2022-08-03T07:49:59;9.07;;;3.45;;
71387;SDS011;59201;59.902;10.520;2022-08-03T07:52:25;10.60;;;3.10;;
71387;SDS011;59201;59.902;10.520;2022-08-03T07:55:10;7.53;;;2.85;;
71387;SDS011;59201;59.902;10.520;2022-08-03T07:57:36;9.48;;;2.92;;
71387;SDS011;59201;59.902;10.520;2022-08-03T08:00:03;8.68;;;2.95;;
71387;SDS011;59201;59.902;10.520;2022-08-03T08:02:29;9.75;;;2.95;;
71387;SDS011;59201;59.902;10.520;2022-08-03T08:04:55;10.23;;;3.10;;
71387;SDS011;59201;59.902;10.520;2022-08-03T08:07:21;5.80;;;2.13;;
71387;SDS011;59201;59.902;10.520;2022-08-03T08:09:49;7.40;;;2.90;;
71387;SDS011;59201;59.902;10.520;2022-08-03T08:12:15;7.18;;;2.45;;
71387;SDS011;59201;59.902;10.520;2022-08-03T08:14:41;7.85;;;2.80;;
71387;SDS011;59201;59.902;10.520;2022-08-03T08:17:10;10.17;;;2.60;;
71387;SDS011;59201;59.902;10.520;2022-08-03T08:19:36;8.52;;;2.60;;
71387;SDS011;59201;59.902;10.520;2022-08-03T08:22:02;8.75;;;2.58;;
71387;SDS011;59201;59.902;10.520;2022-08-03T08:24:28;7.15;;;2.78;;
71387;SDS011;59201;59.902;10.520;2022-08-03T08:26:55;8.05;;;2.30;;
71387;SDS011;59201;59.902;10.520;2022-08-03T08:29:21;6.17;;;2.27;;
71387;SDS011;59201;59.902;10.520;2022-08-03T08:31:48;7.55;;;1.75;;
71387;SDS011;59201;59.902;10.520;2022-08-03T08:34:14;6.28;;;2.10;;
71387;SDS011;59201;59.902;10.520;2022-08-03T08:36:40;7.38;;;2.00;;
71387;SDS011;59201;59.902;10.520;2022-08-03T08:39:06;6.45;;;2.08;;
71387;SDS011;59201;59.902;10.520;2022-08-03T08:41:32;6.53;;;1.97;;
71387;SDS011;59201;59.902;10.520;2022-08-03T08:43:59;6.85;;;2.20;;
71387;SDS011;59201;59.902;10.520;2022-08-03T08:46:25;6.50;;;1.60;;
71387;SDS011;59201;59.902;10.520;2022-08-03T08:48:52;5.95;;;1.85;;
71387;SDS011;59201;59.902;10.520;2022-08-03T08:51:19;5.40;;;1.63;;
71387;SDS011;59201;59.902;10.520;2022-08-03T08:53:48;5.03;;;1.40;;
71387;SDS011;59201;59.902;10.520;2022-08-03T08:56:14;5.55;;;1.50;;
71387;SDS011;59201;59.902;10.520;2022-08-03T08:58:48;4.95;;;1.40;;
71387;SDS011;59201;59.902;10.520;2022-08-03T09:01:19;4.40;;;1.40;;
71387;SDS011;59201;59.902;10.520;2022-08-03T09:03:46;6.35;;;1.40;;
71387;SDS011;59201;59.902;10.520;2022-08-03T09:06:12;7.87;;;1.30;;
71387;SDS011;59201;59.902;10.520;2022-08-03T09:08:39;5.95;;;1.25;;
71387;SDS011;59201;59.902;10.520;2022-08-03T09:11:05;4.03;;;1.17;;
71387;SDS011;59201;59.902;10.520;2022-08-03T09:13:34;4.10;;;1.27;;
71387;SDS011;59201;59.902;10.520;2022-08-03T09:18:39;5.67;;;1.60;;
71387;SDS011;59201;59.902;10.520;2022-08-03T09:21:12;4.95;;;1.38;;
71387;SDS011;59201;59.902;10.520;2022-08-03T09:23:45;4.55;;;1.30;;
71387;SDS011;59201;59.902;10.520;2022-08-03T09:26:12;4.13;;;1.23;;
71387;SDS011;59201;59.902;10.520;2022-08-03T09:28:38;5.50;;;1.90;;
71387;SDS011;59201;59.902;10.520;2022-08-03T09:31:05;5.73;;;1.50;;
71387;SDS011;59201;59.902;10.520;2022-08-03T09:33:32;4.78;;;1.50;;
71387;SDS011;59201;59.902;10.520;2022-08-03T09:36:11;5.68;;;1.70;;
71387;SDS011;59201;59.902;10.520;2022-08-03T09:39:00;6.05;;;2.30;;
71387;SDS011;59201;59.902;10.520;2022-08-03T09:41:30;5.75;;;1.85;;
71387;SDS011;59201;59.902;10.520;2022-08-03T09:43:56;6.53;;;2.13;;
71387;SDS011;59201;59.902;10.520;2022-08-03T09:46:22;6.50;;;2.17;;
71387;SDS011;59201;59.902;10.520;2022-08-03T09:48:49;8.65;;;2.47;;
71387;SDS011;59201;59.902;10.520;2022-08-03T09:51:15;8.45;;;2.72;;
71387;SDS011;59201;59.902;10.520;2022-08-03T09:53:44;6.72;;;2.78;;
71387;SDS011;59201;59.902;10.520;2022-08-03T09:56:10;10.47;;;2.60;;
71387;SDS011;59201;59.902;10.520;2022-08-03T09:58:45;9.10;;;2.63;;
71387;SDS011;59201;59.902;10.520;2022-08-03T10:01:12;9.90;;;3.22;;
71387;SDS011;59201;59.902;10.520;2022-08-03T10:03:39;8.57;;;2.47;;
71387;SDS011;59201;59.902;10.520;2022-08-03T10:06:15;9.23;;;3.00;;
71387;SDS011;59201;59.902;10.520;2022-08-03T10:08:43;8.17;;;3.00;;
71387;SDS011;59201;59.902;10.520;2022-08-03T10:11:09;9.50;;;3.38;;
71387;SDS011;59201;59.902;10.520;2022-08-03T10:13:35;9.00;;;3.28;;
71387;SDS011;59201;59.902;10.520;2022-08-03T10:16:02;10.60;;;3.45;;
71387;SDS011;59201;59.902;10.520;2022-08-03T10:18:30;11.82;;;3.60;;
71387;SDS011;59201;59.902;10.520;2022-08-03T10:20:58;11.30;;;3.90;;
71387;SDS011;59201;59.902;10.520;2022-08-03T10:23:26;10.10;;;2.90;;
71387;SDS011;59201;59.902;10.520;2022-08-03T10:25:53;8.82;;;3.42;;
71387;SDS011;59201;59.902;10.520;2022-08-03T10:28:23;9.00;;;3.28;;
71387;SDS011;59201;59.902;10.520;2022-08-03T10:30:50;7.75;;;2.38;;
71387;SDS011;59201;59.902;10.520;2022-08-03T10:33:19;9.43;;;3.47;;
71387;SDS011;59201;59.902;10.520;2022-08-03T10:35:45;9.68;;;3.08;;
71387;SDS011;59201;59.902;10.520;2022-08-03T10:38:15;9.02;;;2.80;;
71387;SDS011;59201;59.902;10.520;2022-08-03T10:40:41;7.70;;;3.15;;
71387;SDS011;59201;59.902;10.520;2022-08-03T10:43:11;11.50;;;2.83;;
71387;SDS011;59201;59.902;10.520;2022-08-03T10:45:42;10.20;;;2.83;;
71387;SDS011;59201;59.902;10.520;2022-08-03T10:48:10;6.03;;;2.30;;
71387;SDS011;59201;59.902;10.520;2022-08-03T10:50:37;5.90;;;2.63;;
71387;SDS011;59201;59.902;10.520;2022-08-03T10:53:05;7.25;;;2.70;;
71387;SDS011;59201;59.902;10.520;2022-08-03T10:55:35;9.15;;;2.80;;
71387;SDS011;59201;59.902;10.520;2022-08-03T11:01:06;7.32;;;2.10;;
71387;SDS011;59201;59.902;10.520;2022-08-03T11:03:32;8.30;;;2.50;;
71387;SDS011;59201;59.902;10.520;2022-08-03T11:06:15;8.05;;;2.60;;
71387;SDS011;59201;59.902;10.520;2022-08-03T11:08:43;8.52;;;2.50;;
71387;SDS011;59201;59.902;10.520;2022-08-03T11:14:01;7.75;;;2.60;;
71387;SDS011;59201;59.902;10.520;2022-08-03T11:16:28;10.15;;;2.60;;
71387;SDS011;59201;59.902;10.520;2022-08-03T11:18:55;6.30;;;2.40;;
71387;SDS011;59201;59.902;10.520;2022-08-03T11:21:43;7.60;;;2.53;;
71387;SDS011;59201;59.902;10.520;2022-08-03T11:24:07;8.80;;;2.30;;
71387;SDS011;59201;59.902;10.520;2022-08-03T11:26:33;10.02;;;2.80;;
71387;SDS011;59201;59.902;10.520;2022-08-03T11:31:44;7.28;;;2.85;;
71387;SDS011;59201;59.902;10.520;2022-08-03T11:34:11;8.30;;;2.75;;
71387;SDS011;59201;59.902;10.520;2022-08-03T11:39:34;7.93;;;2.25;;
71387;SDS011;59201;59.902;10.520;2022-08-03T11:42:36;6.55;;;2.30;;
71387;SDS011;59201;59.902;10.520;2022-08-03T11:44:57;6.35;;;1.95;;
71387;SDS011;59201;59.902;10.520;2022-08-03T11:47:25;7.60;;;2.30;;
71387;SDS011;59201;59.902;10.520;2022-08-03T11:49:58;7.17;;;2.50;;
71387;SDS011;59201;59.902;10.520;2022-08-03T11:52:26;6.28;;;2.50;;
71387;SDS011;59201;59.902;10.520;2022-08-03T11:54:52;5.95;;;2.50;;
71387;SDS011;59201;59.902;10.520;2022-08-03T11:57:31;7.75;;;2.60;;
71387;SDS011;59201;59.902;10.520;2022-08-03T11:59:57;8.40;;;3.10;;
71387;SDS011;59201;59.902;10.520;2022-08-03T12:02:23;7.20;;;2.57;;
71387;SDS011;59201;59.902;10.520;2022-08-03T12:04:50;5.88;;;2.15;;
71387;SDS011;59201;59.902;10.520;2022-08-03T12:07:17;7.47;;;2.40;;
71387;SDS011;59201;59.902;10.520;2022-08-03T12:09:43;7.70;;;2.72;;
71387;SDS011;59201;59.902;10.520;2022-08-03T12:12:09;6.18;;;2.10;;
71387;SDS011;59201;59.902;10.520;2022-08-03T12:14:35;6.53;;;2.30;;
71387;SDS011;59201;59.902;10.520;2022-08-03T12:17:01;5.70;;;2.60;;
71387;SDS011;59201;59.902;10.520;2022-08-03T12:19:37;7.82;;;2.83;;
71387;SDS011;59201;59.902;10.520;2022-08-03T12:22:06;6.20;;;2.30;;
71387;SDS011;59201;59.902;10.520;2022-08-03T12:24:39;8.60;;;2.78;;
71387;SDS011;59201;59.902;10.520;2022-08-03T12:27:05;7.43;;;2.37;;
71387;SDS011;59201;59.902;10.520;2022-08-03T12:29:31;7.53;;;2.30;;
71387;SDS011;59201;59.902;10.520;2022-08-03T12:31:57;6.53;;;2.20;;
71387;SDS011;59201;59.902;10.520;2022-08-03T12:34:24;6.43;;;2.17;;
71387;SDS011;59201;59.902;10.520;2022-08-03T12:37:09;7.60;;;2.40;;
71387;SDS011;59201;59.902;10.520;2022-08-03T12:39:35;6.67;;;2.50;;
71387;SDS011;59201;59.902;10.520;2022-08-03T12:42:01;7.88;;;2.40;;
71387;SDS011;59201;59.902;10.520;2022-08-03T12:44:37;7.30;;;2.10;;
71387;SDS011;59201;59.902;10.520;2022-08-03T12:47:03;5.53;;;1.98;;
71387;SDS011;59201;59.902;10.520;2022-08-03T12:49:46;7.47;;;2.60;;
71387;SDS011;59201;59.902;10.520;2022-08-03T12:52:12;5.33;;;1.80;;
71387;SDS011;59201;59.902;10.520;2022-08-03T12:54:38;7.10;;;2.03;;
71387;SDS011;59201;59.902;10.520;2022-08-03T12:57:06;5.85;;;2.40;;
71387;SDS011;59201;59.902;10.520;2022-08-03T12:59:33;5.10;;;1.83;;
71387;SDS011;59201;59.902;10.520;2022-08-03T13:01:59;6.28;;;2.35;;
71387;SDS011;59201;59.902;10.520;2022-08-03T13:04:29;6.70;;;2.10;;
71387;SDS011;59201;59.902;10.520;2022-08-03T13:06:57;7.15;;;2.25;;
71387;SDS011;59201;59.902;10.520;2022-08-03T13:09:23;6.60;;;2.05;;
71387;SDS011;59201;59.902;10.520;2022-08-03T13:12:08;6.30;;;2.00;;
71387;SDS011;59201;59.902;10.520;2022-08-03T13:14:35;9.50;;;2.63;;
71387;SDS011;59201;59.902;10.520;2022-08-03T13:17:01;8.23;;;2.00;;
71387;SDS011;59201;59.902;10.520;2022-08-03T13:19:27;6.45;;;1.80;;
71387;SDS011;59201;59.902;10.520;2022-08-03T13:21:53;6.55;;;2.17;;
71387;SDS011;59201;59.902;10.520;2022-08-03T13:24:19;8.77;;;2.25;;
71387;SDS011;59201;59.902;10.520;2022-08-03T13:26:46;4.97;;;1.40;;
71387;SDS011;59201;59.902;10.520;2022-08-03T13:29:12;5.53;;;2.00;;
71387;SDS011;59201;59.902;10.520;2022-08-03T13:31:38;7.47;;;1.75;;
71387;SDS011;59201;59.902;10.520;2022-08-03T13:34:04;9.57;;;1.90;;
71387;SDS011;59201;59.902;10.520;2022-08-03T13:36:30;5.55;;;1.73;;
71387;SDS011;59201;59.902;10.520;2022-08-03T13:38:56;7.35;;;2.58;;
71387;SDS011;59201;59.902;10.520;2022-08-03T13:41:22;5.97;;;1.90;;
71387;SDS011;59201;59.902;10.520;2022-08-03T13:43:48;5.78;;;1.50;;
71387;SDS011;59201;59.902;10.520;2022-08-03T13:46:14;5.57;;;1.63;;
71387;SDS011;59201;59.902;10.520;2022-08-03T13:48:41;7.03;;;1.88;;
71387;SDS011;59201;59.902;10.520;2022-08-03T13:51:07;5.35;;;2.17;;
71387;SDS011;59201;59.902;10.520;2022-08-03T13:53:33;6.30;;;1.80;;
71387;SDS011;59201;59.902;10.520;2022-08-03T13:56:00;6.68;;;1.50;;
71387;SDS011;59201;59.902;10.520;2022-08-03T13:58:26;6.68;;;1.80;;
71387;SDS011;59201;59.902;10.520;2022-08-03T14:00:52;8.07;;;1.98;;
71387;SDS011;59201;59.902;10.520;2022-08-03T14:03:18;5.57;;;1.58;;
71387;SDS011;59201;59.902;10.520;2022-08-03T14:05:44;4.93;;;1.70;;
71387;SDS011;59201;59.902;10.520;2022-08-03T14:08:11;6.20;;;1.35;;
71387;SDS011;59201;59.902;10.520;2022-08-03T14:10:39;5.30;;;1.45;;
71387;SDS011;59201;59.902;10.520;2022-08-03T14:13:05;6.22;;;1.80;;
71387;SDS011;59201;59.902;10.520;2022-08-03T14:15:32;6.25;;;1.67;;
71387;SDS011;59201;59.902;10.520;2022-08-03T14:17:59;5.70;;;1.77;;
71387;SDS011;59201;59.902;10.520;2022-08-03T14:20:25;7.28;;;2.25;;
71387;SDS011;59201;59.902;10.520;2022-08-03T14:22:52;5.75;;;1.70;;
71387;SDS011;59201;59.902;10.520;2022-08-03T14:25:19;9.35;;;1.65;;
71387;SDS011;59201;59.902;10.520;2022-08-03T14:27:45;6.65;;;1.75;;
71387;SDS011;59201;59.902;10.520;2022-08-03T14:30:11;7.47;;;1.93;;
71387;SDS011;59201;59.902;10.520;2022-08-03T14:32:38;5.13;;;1.70;;
71387;SDS011;59201;59.902;10.520;2022-08-03T14:35:04;9.32;;;1.90;;
71387;SDS011;59201;59.902;10.520;2022-08-03T14:37:30;7.07;;;2.03;;
71387;SDS011;59201;59.902;10.520;2022-08-03T14:39:58;5.70;;;1.85;;
71387;SDS011;59201;59.902;10.520;2022-08-03T14:42:24;6.70;;;1.80;;
71387;SDS011;59201;59.902;10.520;2022-08-03T14:44:50;6.15;;;1.70;;
71387;SDS011;59201;59.902;10.520;2022-08-03T14:47:16;4.43;;;1.58;;
71387;SDS011;59201;59.902;10.520;2022-08-03T14:49:42;7.78;;;1.60;;
71387;SDS011;59201;59.902;10.520;2022-08-03T14:52:08;6.80;;;1.80;;
71387;SDS011;59201;59.902;10.520;2022-08-03T14:54:34;8.70;;;2.20;;